Maiko — JD2630 — position and weather

sailwx.info

Track history (hours):
 
Tides and Currents Weather Stations Pressure Air Temp Water Temp Dewpoint Dewpoint Depression Visibility Wind Speed Wind Dir Waves Ship Positions

Maiko

Last reported at 2018-Jul-14 10:04 UTC. Time now 2018-Jul-16 02:30 UTC.
Position N 34°54' E 139°14'.

Length 85 m; draft 3.6 m.

Type: Cargo ship. MMSI: 431000527.

Date/timePositionNaut miles runAvg speedWind from/ knotsBaromVisibWave heightAir tempDewpointWater temp
2018-Jul-14 10:04N 34°54' E 139°14'111.3
2018-Jul-14 10:00N 34°54' E 139°15'710.6
2018-Jul-14 09:22N 34°57' E 139°22'3 9.6
2018-Jul-14 09:00N 34°59' E 139°26'5 9.5
2018-Jul-14 08:30N 35°01' E 139°31'611.7
2018-Jul-14 08:00N 35°04' E 139°37'611.8
2018-Jul-14 07:30N 35°08' E 139°43'611.8
2018-Jul-14 07:00N 35°13' E 139°46'510.9
2018-Jul-14 06:30N 35°18' E 139°44'612.0
2018-Jul-14 06:00N 35°24' E 139°41'0 0.7
2018-Jul-14 05:29N 35°24' E 139°41'0 0.0
2018-Jul-14 04:59N 35°24' E 139°41'0 0.0
2018-Jul-14 04:29N 35°24' E 139°41'1 1.3
2018-Jul-14 04:01N 35°24' E 139°40'1 1.3
2018-Jul-14 03:31N 35°23' E 139°41'3 5.6
2018-Jul-14 02:58N 35°22' E 139°44'0 0.1
2018-Jul-14 02:28N 35°22' E 139°44'0 0.0
2018-Jul-14 01:58N 35°22' E 139°44'0 0.0
2018-Jul-14 01:28N 35°22' E 139°44'0 0.0
2018-Jul-14 00:58N 35°22' E 139°44'0 0.0
2018-Jul-14 00:28N 35°22' E 139°44'0 0.0
2018-Jul-13 23:58N 35°22' E 139°44'0 0.0
2018-Jul-13 23:28N 35°22' E 139°44'0 0.0
2018-Jul-13 22:58N 35°22' E 139°44'0 0.0
2018-Jul-13 22:28N 35°22' E 139°44'0 0.0
2018-Jul-13 21:58N 35°22' E 139°44'0 0.0
2018-Jul-13 21:28N 35°22' E 139°44'0 0.0
2018-Jul-13 20:55N 35°22' E 139°44'0 0.1
2018-Jul-13 20:28N 35°22' E 139°44'0 0.1
2018-Jul-13 19:58N 35°22' E 139°44'0 0.1
2018-Jul-13 19:28N 35°22' E 139°44'0 0.1
2018-Jul-13 18:58N 35°22' E 139°44'0 0.1
2018-Jul-13 18:30N 35°22' E 139°44'510.5
2018-Jul-13 18:00N 35°17' E 139°46'612.0
2018-Jul-13 17:30N 35°11' E 139°47'712.3
2018-Jul-13 16:57N 35°05' E 139°42'512.3
2018-Jul-13 16:30N 35°01' E 139°37'713.4
2018-Jul-13 16:00N 34°57' E 139°31'1215.6
2018-Jul-13 15:14N 34°50' E 139°19'11 0.3
2018-Jul-12 03:56N 34°60' E 139°24'511.4
2018-Jul-12 03:30N 35°02' E 139°30'612.8
2018-Jul-12 03:00N 35°05' E 139°37'714.0
2018-Jul-12 02:30N 35°09' E 139°44'713.2
2018-Jul-12 02:00N 35°15' E 139°46'713.2
2018-Jul-12 01:31N 35°21' E 139°42'4 6.6
2018-Jul-12 00:58N 35°24' E 139°41'0 0.0
2018-Jul-12 00:28N 35°24' E 139°41'0 0.0
2018-Jul-11 23:58N 35°24' E 139°41'0 0.0
2018-Jul-11 23:30N 35°24' E 139°41'1 2.5
2018-Jul-11 23:01N 35°23' E 139°40'3 5.5
2018-Jul-11 22:30N 35°22' E 139°44'0 0.1
2018-Jul-11 22:00N 35°22' E 139°44'0 0.0
2018-Jul-11 21:30N 35°22' E 139°44'0 0.0
2018-Jul-11 21:00N 35°22' E 139°44'0 0.1
2018-Jul-11 20:27N 35°22' E 139°44'0 0.1
2018-Jul-11 19:57N 35°22' E 139°44'0 0.0
2018-Jul-11 19:27N 35°22' E 139°44'0 0.0
2018-Jul-11 19:00N 35°22' E 139°44'0 0.0
2018-Jul-11 18:30N 35°22' E 139°44'0 0.1
2018-Jul-11 18:00N 35°22' E 139°44'0 0.0
2018-Jul-11 17:21N 35°22' E 139°44'0 0.1
2018-Jul-11 17:00N 35°22' E 139°44'0 0.0
2018-Jul-11 16:30N 35°22' E 139°44'0 0.1
2018-Jul-11 16:00N 35°22' E 139°44'0 0.0
2018-Jul-11 15:30N 35°22' E 139°44'0 0.0
2018-Jul-11 15:00N 35°22' E 139°44'1 2.9
2018-Jul-11 14:31N 35°21' E 139°43'612.7
2018-Jul-11 14:01N 35°15' E 139°47'612.8
2018-Jul-11 13:30N 35°09' E 139°46'612.1
2018-Jul-11 13:00N 35°04' E 139°42'612.4
2018-Jul-11 12:30N 34°59' E 139°36'814.9
2018-Jul-11 12:00N 34°55' E 139°29'7 0.3
2018-Jul-10 10:43N 34°58' E 139°20'2 8.7
2018-Jul-10 10:26N 34°59' E 139°23'4 8.9
2018-Jul-10 10:00N 35°00' E 139°27'510.4
2018-Jul-10 09:30N 35°03' E 139°33'611.1
2018-Jul-10 09:00N 35°06' E 139°38'611.1
2018-Jul-10 08:30N 35°10' E 139°44'611.3
2018-Jul-10 08:00N 35°15' E 139°46'612.2
2018-Jul-10 07:30N 35°20' E 139°42'4 8.1
2018-Jul-10 06:59N 35°24' E 139°41'0 0.0
2018-Jul-10 06:29N 35°24' E 139°41'0 0.0
2018-Jul-10 05:59N 35°24' E 139°41'0 0.0
2018-Jul-10 05:29N 35°24' E 139°41'0 0.0
2018-Jul-10 04:59N 35°24' E 139°41'0 0.0
2018-Jul-10 04:29N 35°24' E 139°41'0 0.4
2018-Jul-10 04:00N 35°24' E 139°41'1 1.2
2018-Jul-10 03:31N 35°23' E 139°40'3 5.4
2018-Jul-10 03:00N 35°21' E 139°43'612.4
2018-Jul-10 02:30N 35°16' E 139°46'612.7
2018-Jul-10 02:00N 35°10' E 139°46'713.0
2018-Jul-10 01:30N 35°04' E 139°42'713.4
2018-Jul-10 01:00N 34°59' E 139°36'715.0
2018-Jul-10 00:30N 34°55' E 139°29'8 0.4
2018-Jul-09 04:14N 34°56' E 139°20'410.1
2018-Jul-09 03:52N 34°58' E 139°24'410.4
2018-Jul-09 03:30N 34°60' E 139°28'611.6
2018-Jul-09 02:59N 35°03' E 139°34'713.8
2018-Jul-09 02:30N 35°06' E 139°41'612.7
2018-Jul-09 02:00N 35°11' E 139°46'611.6
2018-Jul-09 01:30N 35°17' E 139°45'612.4
2018-Jul-09 01:00N 35°23' E 139°41'2 3.1
2018-Jul-09 00:30N 35°24' E 139°41'0 0.0
2018-Jul-09 00:00N 35°24' E 139°41'0 0.0
2018-Jul-08 23:30N 35°24' E 139°41'0 0.0
2018-Jul-08 23:00N 35°24' E 139°41'0 0.0
2018-Jul-08 22:30N 35°24' E 139°41'0 0.0
2018-Jul-08 21:54N 35°24' E 139°41'0 0.0
2018-Jul-08 21:30N 35°24' E 139°41'0 0.0
2018-Jul-08 21:00N 35°24' E 139°41'0 0.0
2018-Jul-08 20:30N 35°24' E 139°41'0 0.0
2018-Jul-08 20:00N 35°24' E 139°41'0 0.0
2018-Jul-08 19:30N 35°24' E 139°41'0 0.0
2018-Jul-08 19:00N 35°24' E 139°41'0 0.0
2018-Jul-08 18:30N 35°24' E 139°41'0 0.0
2018-Jul-08 18:00N 35°24' E 139°41'0 0.0
2018-Jul-08 17:24N 35°24' E 139°41'0 0.0
2018-Jul-08 17:00N 35°24' E 139°41'0 0.0
2018-Jul-08 16:30N 35°24' E 139°41'0 0.0
2018-Jul-08 16:00N 35°24' E 139°41'0 0.0
2018-Jul-08 15:30N 35°24' E 139°41'0 0.1
2018-Jul-08 15:00N 35°24' E 139°41'0 0.1
2018-Jul-08 14:30N 35°24' E 139°41'0 0.0
2018-Jul-08 14:00N 35°24' E 139°41'0 0.0
2018-Jul-08 13:30N 35°24' E 139°41'0 0.0
2018-Jul-08 13:00N 35°24' E 139°41'0 0.0
2018-Jul-08 12:30N 35°24' E 139°41'0 0.0
2018-Jul-08 12:00N 35°24' E 139°41'0 0.0
2018-Jul-08 11:30N 35°24' E 139°41'0 0.0
2018-Jul-08 11:00N 35°24' E 139°41'0 0.0
2018-Jul-08 10:30N 35°24' E 139°41'1 1.5
2018-Jul-08 10:00N 35°23' E 139°41'2 4.3
2018-Jul-08 09:30N 35°23' E 139°44'0 0.0
2018-Jul-08 09:00N 35°23' E 139°44'0 0.0
2018-Jul-08 08:30N 35°23' E 139°44'0 0.0
2018-Jul-08 08:00N 35°23' E 139°44'0 0.1
2018-Jul-08 07:30N 35°23' E 139°43'0 0.1
2018-Jul-08 07:00N 35°23' E 139°44'0 0.1
2018-Jul-08 06:30N 35°23' E 139°43'0 0.0
2018-Jul-08 06:00N 35°23' E 139°43'0 0.0
2018-Jul-08 05:30N 35°23' E 139°43'0 0.0
2018-Jul-08 04:57N 35°23' E 139°43'0 0.1
2018-Jul-08 04:30N 35°23' E 139°44'0 0.1
2018-Jul-08 04:00N 35°23' E 139°43'0 0.0
2018-Jul-08 03:30N 35°23' E 139°43'0 0.1
2018-Jul-08 03:00N 35°23' E 139°44'0 0.0
2018-Jul-08 02:30N 35°23' E 139°44'0 0.0
2018-Jul-08 02:00N 35°23' E 139°44'0 0.0
2018-Jul-08 01:27N 35°23' E 139°44'0 0.0
2018-Jul-08 01:00N 35°23' E 139°44'0 0.0
2018-Jul-08 00:30N 35°23' E 139°44'0 0.0
2018-Jul-08 00:00N 35°23' E 139°44'0 0.0
2018-Jul-07 23:30N 35°23' E 139°44'0 0.0
2018-Jul-07 22:57N 35°23' E 139°44'0 0.0
2018-Jul-07 22:30N 35°23' E 139°44'0 0.0
2018-Jul-07 22:00N 35°23' E 139°44'0 0.0
2018-Jul-07 21:30N 35°23' E 139°44'0 0.0
2018-Jul-07 21:00N 35°23' E 139°44'0 0.1
2018-Jul-07 20:30N 35°23' E 139°43'0 0.0
2018-Jul-07 19:54N 35°23' E 139°43'0 0.1
2018-Jul-07 19:30N 35°23' E 139°44'0 0.1
2018-Jul-07 18:57N 35°23' E 139°43'0 0.2
2018-Jul-07 18:31N 35°23' E 139°43'5 9.7
2018-Jul-07 18:01N 35°18' E 139°45'611.4
2018-Jul-07 17:31N 35°13' E 139°47'612.5
2018-Jul-07 17:01N 35°07' E 139°44'612.4
2018-Jul-07 16:30N 35°02' E 139°39'714.3
2018-Jul-07 16:01N 34°57' E 139°33'814.8
2018-Jul-07 15:27N 34°53' E 139°24'8 0.2
2018-Jul-06 09:09N 34°55' E 139°15'511.1
2018-Jul-06 08:41N 34°57' E 139°21'210.5
2018-Jul-06 08:30N 34°58' E 139°23'510.4
2018-Jul-06 08:00N 35°01' E 139°28'611.7
2018-Jul-06 07:30N 35°03' E 139°35'612.8
2018-Jul-06 07:01N 35°07' E 139°41'612.5
2018-Jul-06 06:30N 35°12' E 139°46'612.2
2018-Jul-06 06:00N 35°18' E 139°44'613.1
2018-Jul-06 05:31N 35°23' E 139°41'1 1.3
2018-Jul-06 05:00N 35°24' E 139°41'0 0.0
2018-Jul-06 04:30N 35°24' E 139°41'0 0.0
2018-Jul-06 04:00N 35°24' E 139°41'0 0.7
2018-Jul-06 03:30N 35°24' E 139°41'3 4.9
2018-Jul-06 02:58N 35°23' E 139°43'0 0.0
2018-Jul-06 02:28N 35°23' E 139°43'0 0.0
2018-Jul-06 01:58N 35°23' E 139°43'0 0.1
2018-Jul-06 01:28N 35°23' E 139°43'0 0.0
2018-Jul-06 00:58N 35°23' E 139°43'0 0.0
2018-Jul-06 00:28N 35°23' E 139°43'0 0.0
2018-Jul-05 23:58N 35°23' E 139°43'0 0.0
2018-Jul-05 23:28N 35°23' E 139°43'0 0.1
2018-Jul-05 22:58N 35°23' E 139°43'3 5.5
2018-Jul-05 22:30N 35°25' E 139°44'510.1
2018-Jul-05 22:00N 35°29' E 139°39'0 0.1
2018-Jul-05 21:28N 35°29' E 139°39'0 0.0
2018-Jul-05 20:58N 35°29' E 139°39'0 0.0
2018-Jul-05 20:28N 35°29' E 139°39'0 0.0
2018-Jul-05 19:58N 35°29' E 139°39'0 0.0
2018-Jul-05 19:28N 35°29' E 139°39'0 0.0
2018-Jul-05 18:58N 35°29' E 139°39'0 0.0
2018-Jul-05 18:28N 35°29' E 139°39'0 0.0
2018-Jul-05 17:58N 35°29' E 139°39'0 0.0
2018-Jul-05 17:25N 35°29' E 139°39'0 0.0
2018-Jul-05 16:58N 35°29' E 139°39'0 0.0
2018-Jul-05 16:28N 35°29' E 139°39'0 0.0
2018-Jul-05 15:58N 35°29' E 139°39'0 0.0
2018-Jul-05 15:28N 35°29' E 139°39'0 0.0
2018-Jul-05 14:58N 35°29' E 139°39'0 0.0
2018-Jul-05 14:28N 35°29' E 139°39'0 0.0
2018-Jul-05 13:28N 35°29' E 139°39'0 0.0
2018-Jul-05 12:58N 35°29' E 139°39'0 0.0
2018-Jul-05 12:28N 35°29' E 139°39'0 0.0
2018-Jul-05 11:58N 35°29' E 139°39'0 0.0
2018-Jul-05 11:25N 35°29' E 139°39'0 0.0
2018-Jul-05 10:58N 35°29' E 139°39'0 0.0
2018-Jul-05 10:28N 35°29' E 139°39'0 0.0
2018-Jul-05 09:55N 35°29' E 139°39'0 0.0
2018-Jul-05 09:28N 35°29' E 139°39'0 0.0
2018-Jul-05 08:58N 35°29' E 139°39'0 0.0
2018-Jul-05 08:25N 35°29' E 139°39'0 0.0
2018-Jul-05 07:58N 35°29' E 139°39'0 0.0
2018-Jul-05 07:28N 35°29' E 139°39'0 0.0
2018-Jul-05 06:58N 35°29' E 139°39'0 0.0
2018-Jul-05 06:28N 35°29' E 139°39'0 0.0
2018-Jul-05 05:58N 35°29' E 139°39'0 0.0
2018-Jul-05 05:28N 35°29' E 139°39'0 0.0
2018-Jul-05 04:58N 35°29' E 139°39'0 0.0
2018-Jul-05 04:28N 35°29' E 139°39'0 0.0
2018-Jul-05 03:58N 35°29' E 139°39'0 0.0
2018-Jul-05 03:28N 35°29' E 139°39'0 0.0
2018-Jul-05 02:58N 35°29' E 139°39'0 0.0
2018-Jul-05 02:28N 35°29' E 139°39'0 0.0
2018-Jul-05 01:58N 35°29' E 139°39'0 0.0
2018-Jul-05 01:28N 35°29' E 139°39'0 0.0
2018-Jul-05 00:58N 35°29' E 139°39'0 0.0
2018-Jul-05 00:28N 35°29' E 139°39'0 0.0
2018-Jul-04 23:58N 35°29' E 139°39'0 0.0
2018-Jul-04 23:28N 35°29' E 139°39'0 0.0
2018-Jul-04 22:58N 35°29' E 139°39'1 1.7
2018-Jul-04 22:30N 35°28' E 139°40'510.1
2018-Jul-04 22:00N 35°24' E 139°44'2 2.8
2018-Jul-04 21:28N 35°23' E 139°45'0 0.0
2018-Jul-04 20:58N 35°23' E 139°45'0 0.0
2018-Jul-04 20:28N 35°23' E 139°45'0 0.0
2018-Jul-04 19:58N 35°23' E 139°45'0 0.0
2018-Jul-04 19:31N 35°23' E 139°45'0 0.0
2018-Jul-04 18:58N 35°23' E 139°45'0 0.0
2018-Jul-04 18:28N 35°23' E 139°45'0 0.0
2018-Jul-04 17:58N 35°23' E 139°45'0 0.0
2018-Jul-04 17:28N 35°23' E 139°45'0 0.0
2018-Jul-04 16:58N 35°23' E 139°45'0 0.0
2018-Jul-04 16:28N 35°23' E 139°45'0 0.0
2018-Jul-04 15:58N 35°23' E 139°45'0 0.0
2018-Jul-04 15:28N 35°23' E 139°45'0 0.0
2018-Jul-04 14:55N 35°23' E 139°45'0 0.0
2018-Jul-04 14:25N 35°23' E 139°45'0 0.0
2018-Jul-04 13:58N 35°23' E 139°45'0 0.0
2018-Jul-04 13:31N 35°23' E 139°45'0 0.0
2018-Jul-04 13:01N 35°23' E 139°45'0 0.0
2018-Jul-04 12:31N 35°23' E 139°45'0 0.0
2018-Jul-04 11:58N 35°23' E 139°45'0 0.0
2018-Jul-04 11:31N 35°23' E 139°45'0 0.0
2018-Jul-04 10:58N 35°23' E 139°45'0 0.0
2018-Jul-04 10:28N 35°23' E 139°45'  
Track history (hours):
 
Tides and Currents Weather Stations Pressure Air Temp Water Temp Dewpoint Dewpoint Depression Visibility Wind Speed Wind Dir Waves Ship Positions

Maiko

Last reported at 2018-Jul-14 10:04 UTC. Time now 2018-Jul-16 02:30 UTC.
Position N 34°54' E 139°14'.

Length 85 m; draft 3.6 m.

Type: Cargo ship. MMSI: 431000527.

Date/timePositionNaut miles runAvg speedWind from/ knotsBaromVisibWave heightAir tempDewpointWater temp
2018-Jul-14 10:04N 34°54' E 139°14'111.3
2018-Jul-14 10:00N 34°54' E 139°15'710.6
2018-Jul-14 09:22N 34°57' E 139°22'3 9.6
2018-Jul-14 09:00N 34°59' E 139°26'5 9.5
2018-Jul-14 08:30N 35°01' E 139°31'611.7
2018-Jul-14 08:00N 35°04' E 139°37'611.8
2018-Jul-14 07:30N 35°08' E 139°43'611.8
2018-Jul-14 07:00N 35°13' E 139°46'510.9
2018-Jul-14 06:30N 35°18' E 139°44'612.0
2018-Jul-14 06:00N 35°24' E 139°41'0 0.7
2018-Jul-14 05:29N 35°24' E 139°41'0 0.0
2018-Jul-14 04:59N 35°24' E 139°41'0 0.0
2018-Jul-14 04:29N 35°24' E 139°41'1 1.3
2018-Jul-14 04:01N 35°24' E 139°40'1 1.3
2018-Jul-14 03:31N 35°23' E 139°41'3 5.6
2018-Jul-14 02:58N 35°22' E 139°44'0 0.1
2018-Jul-14 02:28N 35°22' E 139°44'0 0.0
2018-Jul-14 01:58N 35°22' E 139°44'0 0.0
2018-Jul-14 01:28N 35°22' E 139°44'0 0.0
2018-Jul-14 00:58N 35°22' E 139°44'0 0.0
2018-Jul-14 00:28N 35°22' E 139°44'0 0.0
2018-Jul-13 23:58N 35°22' E 139°44'0 0.0
2018-Jul-13 23:28N 35°22' E 139°44'0 0.0
2018-Jul-13 22:58N 35°22' E 139°44'0 0.0
2018-Jul-13 22:28N 35°22' E 139°44'0 0.0
2018-Jul-13 21:58N 35°22' E 139°44'0 0.0
2018-Jul-13 21:28N 35°22' E 139°44'0 0.0
2018-Jul-13 20:55N 35°22' E 139°44'0 0.1
2018-Jul-13 20:28N 35°22' E 139°44'0 0.1
2018-Jul-13 19:58N 35°22' E 139°44'0 0.1
2018-Jul-13 19:28N 35°22' E 139°44'0 0.1
2018-Jul-13 18:58N 35°22' E 139°44'0 0.1
2018-Jul-13 18:30N 35°22' E 139°44'510.5
2018-Jul-13 18:00N 35°17' E 139°46'612.0
2018-Jul-13 17:30N 35°11' E 139°47'712.3
2018-Jul-13 16:57N 35°05' E 139°42'512.3
2018-Jul-13 16:30N 35°01' E 139°37'713.4
2018-Jul-13 16:00N 34°57' E 139°31'1215.6
2018-Jul-13 15:14N 34°50' E 139°19'11 0.3
2018-Jul-12 03:56N 34°60' E 139°24'511.4
2018-Jul-12 03:30N 35°02' E 139°30'612.8
2018-Jul-12 03:00N 35°05' E 139°37'714.0
2018-Jul-12 02:30N 35°09' E 139°44'713.2
2018-Jul-12 02:00N 35°15' E 139°46'713.2
2018-Jul-12 01:31N 35°21' E 139°42'4 6.6
2018-Jul-12 00:58N 35°24' E 139°41'0 0.0
2018-Jul-12 00:28N 35°24' E 139°41'0 0.0
2018-Jul-11 23:58N 35°24' E 139°41'0 0.0
2018-Jul-11 23:30N 35°24' E 139°41'1 2.5
2018-Jul-11 23:01N 35°23' E 139°40'3 5.5
2018-Jul-11 22:30N 35°22' E 139°44'0 0.1
2018-Jul-11 22:00N 35°22' E 139°44'0 0.0
2018-Jul-11 21:30N 35°22' E 139°44'0 0.0
2018-Jul-11 21:00N 35°22' E 139°44'0 0.1
2018-Jul-11 20:27N 35°22' E 139°44'0 0.1
2018-Jul-11 19:57N 35°22' E 139°44'0 0.0
2018-Jul-11 19:27N 35°22' E 139°44'0 0.0
2018-Jul-11 19:00N 35°22' E 139°44'0 0.0
2018-Jul-11 18:30N 35°22' E 139°44'0 0.1
2018-Jul-11 18:00N 35°22' E 139°44'0 0.0
2018-Jul-11 17:21N 35°22' E 139°44'0 0.1
2018-Jul-11 17:00N 35°22' E 139°44'0 0.0
2018-Jul-11 16:30N 35°22' E 139°44'0 0.1
2018-Jul-11 16:00N 35°22' E 139°44'0 0.0
2018-Jul-11 15:30N 35°22' E 139°44'0 0.0
2018-Jul-11 15:00N 35°22' E 139°44'1 2.9
2018-Jul-11 14:31N 35°21' E 139°43'612.7
2018-Jul-11 14:01N 35°15' E 139°47'612.8
2018-Jul-11 13:30N 35°09' E 139°46'612.1
2018-Jul-11 13:00N 35°04' E 139°42'612.4
2018-Jul-11 12:30N 34°59' E 139°36'814.9
2018-Jul-11 12:00N 34°55' E 139°29'7 0.3
2018-Jul-10 10:43N 34°58' E 139°20'2 8.7
2018-Jul-10 10:26N 34°59' E 139°23'4 8.9
2018-Jul-10 10:00N 35°00' E 139°27'510.4
2018-Jul-10 09:30N 35°03' E 139°33'611.1
2018-Jul-10 09:00N 35°06' E 139°38'611.1
2018-Jul-10 08:30N 35°10' E 139°44'611.3
2018-Jul-10 08:00N 35°15' E 139°46'612.2
2018-Jul-10 07:30N 35°20' E 139°42'4 8.1
2018-Jul-10 06:59N 35°24' E 139°41'0 0.0
2018-Jul-10 06:29N 35°24' E 139°41'0 0.0
2018-Jul-10 05:59N 35°24' E 139°41'0 0.0
2018-Jul-10 05:29N 35°24' E 139°41'0 0.0
2018-Jul-10 04:59N 35°24' E 139°41'0 0.0
2018-Jul-10 04:29N 35°24' E 139°41'0 0.4
2018-Jul-10 04:00N 35°24' E 139°41'1 1.2
2018-Jul-10 03:31N 35°23' E 139°40'3 5.4
2018-Jul-10 03:00N 35°21' E 139°43'612.4
2018-Jul-10 02:30N 35°16' E 139°46'612.7
2018-Jul-10 02:00N 35°10' E 139°46'713.0
2018-Jul-10 01:30N 35°04' E 139°42'713.4
2018-Jul-10 01:00N 34°59' E 139°36'715.0
2018-Jul-10 00:30N 34°55' E 139°29'8 0.4
2018-Jul-09 04:14N 34°56' E 139°20'410.1
2018-Jul-09 03:52N 34°58' E 139°24'410.4
2018-Jul-09 03:30N 34°60' E 139°28'611.6
2018-Jul-09 02:59N 35°03' E 139°34'713.8
2018-Jul-09 02:30N 35°06' E 139°41'612.7
2018-Jul-09 02:00N 35°11' E 139°46'611.6
2018-Jul-09 01:30N 35°17' E 139°45'612.4
2018-Jul-09 01:00N 35°23' E 139°41'2 3.1
2018-Jul-09 00:30N 35°24' E 139°41'0 0.0
2018-Jul-09 00:00N 35°24' E 139°41'0 0.0
2018-Jul-08 23:30N 35°24' E 139°41'0 0.0
2018-Jul-08 23:00N 35°24' E 139°41'0 0.0
2018-Jul-08 22:30N 35°24' E 139°41'0 0.0
2018-Jul-08 21:54N 35°24' E 139°41'0 0.0
2018-Jul-08 21:30N 35°24' E 139°41'0 0.0
2018-Jul-08 21:00N 35°24' E 139°41'0 0.0
2018-Jul-08 20:30N 35°24' E 139°41'0 0.0
2018-Jul-08 20:00N 35°24' E 139°41'0 0.0
2018-Jul-08 19:30N 35°24' E 139°41'0 0.0
2018-Jul-08 19:00N 35°24' E 139°41'0 0.0
2018-Jul-08 18:30N 35°24' E 139°41'0 0.0
2018-Jul-08 18:00N 35°24' E 139°41'0 0.0
2018-Jul-08 17:24N 35°24' E 139°41'0 0.0
2018-Jul-08 17:00N 35°24' E 139°41'0 0.0
2018-Jul-08 16:30N 35°24' E 139°41'0 0.0
2018-Jul-08 16:00N 35°24' E 139°41'0 0.0
2018-Jul-08 15:30N 35°24' E 139°41'0 0.1
2018-Jul-08 15:00N 35°24' E 139°41'0 0.1
2018-Jul-08 14:30N 35°24' E 139°41'0 0.0
2018-Jul-08 14:00N 35°24' E 139°41'0 0.0
2018-Jul-08 13:30N 35°24' E 139°41'0 0.0
2018-Jul-08 13:00N 35°24' E 139°41'0 0.0
2018-Jul-08 12:30N 35°24' E 139°41'0 0.0
2018-Jul-08 12:00N 35°24' E 139°41'0 0.0
2018-Jul-08 11:30N 35°24' E 139°41'0 0.0
2018-Jul-08 11:00N 35°24' E 139°41'0 0.0
2018-Jul-08 10:30N 35°24' E 139°41'1 1.5
2018-Jul-08 10:00N 35°23' E 139°41'2 4.3
2018-Jul-08 09:30N 35°23' E 139°44'0 0.0
2018-Jul-08 09:00N 35°23' E 139°44'0 0.0
2018-Jul-08 08:30N 35°23' E 139°44'0 0.0
2018-Jul-08 08:00N 35°23' E 139°44'0 0.1
2018-Jul-08 07:30N 35°23' E 139°43'0 0.1
2018-Jul-08 07:00N 35°23' E 139°44'0 0.1
2018-Jul-08 06:30N 35°23' E 139°43'0 0.0
2018-Jul-08 06:00N 35°23' E 139°43'0 0.0
2018-Jul-08 05:30N 35°23' E 139°43'0 0.0
2018-Jul-08 04:57N 35°23' E 139°43'0 0.1
2018-Jul-08 04:30N 35°23' E 139°44'0 0.1
2018-Jul-08 04:00N 35°23' E 139°43'0 0.0
2018-Jul-08 03:30N 35°23' E 139°43'0 0.1
2018-Jul-08 03:00N 35°23' E 139°44'0 0.0
2018-Jul-08 02:30N 35°23' E 139°44'0 0.0
2018-Jul-08 02:00N 35°23' E 139°44'0 0.0
2018-Jul-08 01:27N 35°23' E 139°44'0 0.0
2018-Jul-08 01:00N 35°23' E 139°44'0 0.0
2018-Jul-08 00:30N 35°23' E 139°44'0 0.0
2018-Jul-08 00:00N 35°23' E 139°44'0 0.0
2018-Jul-07 23:30N 35°23' E 139°44'0 0.0
2018-Jul-07 22:57N 35°23' E 139°44'0 0.0
2018-Jul-07 22:30N 35°23' E 139°44'0 0.0
2018-Jul-07 22:00N 35°23' E 139°44'0 0.0
2018-Jul-07 21:30N 35°23' E 139°44'0 0.0
2018-Jul-07 21:00N 35°23' E 139°44'0 0.1
2018-Jul-07 20:30N 35°23' E 139°43'0 0.0
2018-Jul-07 19:54N 35°23' E 139°43'0 0.1
2018-Jul-07 19:30N 35°23' E 139°44'0 0.1
2018-Jul-07 18:57N 35°23' E 139°43'0 0.2
2018-Jul-07 18:31N 35°23' E 139°43'5 9.7
2018-Jul-07 18:01N 35°18' E 139°45'611.4
2018-Jul-07 17:31N 35°13' E 139°47'612.5
2018-Jul-07 17:01N 35°07' E 139°44'612.4
2018-Jul-07 16:30N 35°02' E 139°39'714.3
2018-Jul-07 16:01N 34°57' E 139°33'814.8
2018-Jul-07 15:27N 34°53' E 139°24'8 0.2
2018-Jul-06 09:09N 34°55' E 139°15'511.1
2018-Jul-06 08:41N 34°57' E 139°21'210.5
2018-Jul-06 08:30N 34°58' E 139°23'510.4
2018-Jul-06 08:00N 35°01' E 139°28'611.7
2018-Jul-06 07:30N 35°03' E 139°35'612.8
2018-Jul-06 07:01N 35°07' E 139°41'612.5
2018-Jul-06 06:30N 35°12' E 139°46'612.2
2018-Jul-06 06:00N 35°18' E 139°44'613.1
2018-Jul-06 05:31N 35°23' E 139°41'1 1.3
2018-Jul-06 05:00N 35°24' E 139°41'0 0.0
2018-Jul-06 04:30N 35°24' E 139°41'0 0.0
2018-Jul-06 04:00N 35°24' E 139°41'0 0.7
2018-Jul-06 03:30N 35°24' E 139°41'3 4.9
2018-Jul-06 02:58N 35°23' E 139°43'0 0.0
2018-Jul-06 02:28N 35°23' E 139°43'0 0.0
2018-Jul-06 01:58N 35°23' E 139°43'0 0.1
2018-Jul-06 01:28N 35°23' E 139°43'0 0.0
2018-Jul-06 00:58N 35°23' E 139°43'0 0.0
2018-Jul-06 00:28N 35°23' E 139°43'0 0.0
2018-Jul-05 23:58N 35°23' E 139°43'0 0.0
2018-Jul-05 23:28N 35°23' E 139°43'0 0.1
2018-Jul-05 22:58N 35°23' E 139°43'3 5.5
2018-Jul-05 22:30N 35°25' E 139°44'510.1
2018-Jul-05 22:00N 35°29' E 139°39'0 0.1
2018-Jul-05 21:28N 35°29' E 139°39'0 0.0
2018-Jul-05 20:58N 35°29' E 139°39'0 0.0
2018-Jul-05 20:28N 35°29' E 139°39'0 0.0
2018-Jul-05 19:58N 35°29' E 139°39'0 0.0
2018-Jul-05 19:28N 35°29' E 139°39'0 0.0
2018-Jul-05 18:58N 35°29' E 139°39'0 0.0
2018-Jul-05 18:28N 35°29' E 139°39'0 0.0
2018-Jul-05 17:58N 35°29' E 139°39'0 0.0
2018-Jul-05 17:25N 35°29' E 139°39'0 0.0
2018-Jul-05 16:58N 35°29' E 139°39'0 0.0
2018-Jul-05 16:28N 35°29' E 139°39'0 0.0
2018-Jul-05 15:58N 35°29' E 139°39'0 0.0
2018-Jul-05 15:28N 35°29' E 139°39'0 0.0
2018-Jul-05 14:58N 35°29' E 139°39'0 0.0
2018-Jul-05 14:28N 35°29' E 139°39'0 0.0
2018-Jul-05 13:28N 35°29' E 139°39'0 0.0
2018-Jul-05 12:58N 35°29' E 139°39'0 0.0
2018-Jul-05 12:28N 35°29' E 139°39'0 0.0
2018-Jul-05 11:58N 35°29' E 139°39'0 0.0
2018-Jul-05 11:25N 35°29' E 139°39'0 0.0
2018-Jul-05 10:58N 35°29' E 139°39'0 0.0
2018-Jul-05 10:28N 35°29' E 139°39'0 0.0
2018-Jul-05 09:55N 35°29' E 139°39'0 0.0
2018-Jul-05 09:28N 35°29' E 139°39'0 0.0
2018-Jul-05 08:58N 35°29' E 139°39'0 0.0
2018-Jul-05 08:25N 35°29' E 139°39'0 0.0
2018-Jul-05 07:58N 35°29' E 139°39'0 0.0
2018-Jul-05 07:28N 35°29' E 139°39'0 0.0
2018-Jul-05 06:58N 35°29' E 139°39'0 0.0
2018-Jul-05 06:28N 35°29' E 139°39'0 0.0
2018-Jul-05 05:58N 35°29' E 139°39'0 0.0
2018-Jul-05 05:28N 35°29' E 139°39'0 0.0
2018-Jul-05 04:58N 35°29' E 139°39'0 0.0
2018-Jul-05 04:28N 35°29' E 139°39'0 0.0
2018-Jul-05 03:58N 35°29' E 139°39'0 0.0
2018-Jul-05 03:28N 35°29' E 139°39'0 0.0
2018-Jul-05 02:58N 35°29' E 139°39'0 0.0
2018-Jul-05 02:28N 35°29' E 139°39'0 0.0
2018-Jul-05 01:58N 35°29' E 139°39'0 0.0
2018-Jul-05 01:28N 35°29' E 139°39'0 0.0
2018-Jul-05 00:58N 35°29' E 139°39'0 0.0
2018-Jul-05 00:28N 35°29' E 139°39'0 0.0
2018-Jul-04 23:58N 35°29' E 139°39'0 0.0
2018-Jul-04 23:28N 35°29' E 139°39'0 0.0
2018-Jul-04 22:58N 35°29' E 139°39'1 1.7
2018-Jul-04 22:30N 35°28' E 139°40'510.1
2018-Jul-04 22:00N 35°24' E 139°44'2 2.8
2018-Jul-04 21:28N 35°23' E 139°45'0 0.0
2018-Jul-04 20:58N 35°23' E 139°45'0 0.0
2018-Jul-04 20:28N 35°23' E 139°45'0 0.0
2018-Jul-04 19:58N 35°23' E 139°45'0 0.0
2018-Jul-04 19:31N 35°23' E 139°45'0 0.0
2018-Jul-04 18:58N 35°23' E 139°45'0 0.0
2018-Jul-04 18:28N 35°23' E 139°45'0 0.0
2018-Jul-04 17:58N 35°23' E 139°45'0 0.0
2018-Jul-04 17:28N 35°23' E 139°45'0 0.0
2018-Jul-04 16:58N 35°23' E 139°45'0 0.0
2018-Jul-04 16:28N 35°23' E 139°45'0 0.0
2018-Jul-04 15:58N 35°23' E 139°45'0 0.0
2018-Jul-04 15:28N 35°23' E 139°45'0 0.0
2018-Jul-04 14:55N 35°23' E 139°45'0 0.0
2018-Jul-04 14:25N 35°23' E 139°45'0 0.0
2018-Jul-04 13:58N 35°23' E 139°45'0 0.0
2018-Jul-04 13:31N 35°23' E 139°45'0 0.0
2018-Jul-04 13:01N 35°23' E 139°45'0 0.0
2018-Jul-04 12:31N 35°23' E 139°45'0 0.0
2018-Jul-04 11:58N 35°23' E 139°45'0 0.0
2018-Jul-04 11:31N 35°23' E 139°45'0 0.0
2018-Jul-04 10:58N 35°23' E 139°45'0 0.0
2018-Jul-04 10:28N 35°23' E 139°45'  

Dump ship's entire track history